Alleman, Iowa
Current Conditions -  °F | °C
As of 11:15 AM on Thursday 23 Oct 2014 (Local Time) from KIKV Reporting Station
Overcast Overcast  
Wind Chill: 59°   Ceiling: 700
Heat Index: 59°   Visibility: 10mi
Dew Point: 57°   Wind: 5mph
Humidity: 94%   Direction: 230°SW
Pressure: 30.05"   Gusts: NA
Location:  41.82°N, 93.61°W
Report Text: KIKV 231615Z AUTO 23004KT 10SM OVC007 15/14 A3005 RMK AO2
Loading
Personal Weather Stations






























Interactive Weather Map
Tropical Storm Tracking
New forecast layout! Learn more

10-Day Weather Forecast

Advertisements
Track Severe Weather on mobile